createdAt,value
2023-02-23T00:00:15.096Z,6.04
2023-02-23T00:02:50.491Z,6.06
2023-02-23T00:05:25.764Z,6.00
2023-02-23T00:07:59.190Z,6.00
2023-02-23T00:10:33.586Z,6.16
2023-02-23T00:13:07.314Z,6.16
2023-02-23T00:15:40.987Z,6.05
2023-02-23T00:18:14.444Z,6.04
2023-02-23T00:20:58.714Z,6.18
2023-02-23T00:23:32.037Z,6.06
2023-02-23T00:26:05.443Z,5.95
2023-02-23T00:28:38.744Z,5.95
2023-02-23T00:31:12.858Z,5.86
2023-02-23T00:33:46.686Z,5.92
2023-02-23T00:36:23.170Z,5.98
2023-02-23T00:38:58.428Z,5.95
2023-02-23T00:41:32.165Z,5.90
2023-02-23T00:44:05.655Z,5.93
2023-02-23T00:46:39.616Z,5.78
2023-02-23T00:49:14.531Z,5.57
2023-02-23T00:51:49.321Z,5.46
2023-02-23T00:54:23.124Z,5.40
2023-02-23T00:56:56.206Z,5.56
2023-02-23T00:59:30.734Z,5.48
2023-02-23T01:02:04.108Z,5.37
2023-02-23T01:04:37.621Z,5.44
2023-02-23T01:07:13.173Z,5.44
2023-02-23T01:09:46.753Z,5.44
2023-02-23T01:12:21.642Z,5.45
2023-02-23T01:14:55.222Z,5.36
2023-02-23T01:17:30.673Z,5.23
2023-02-23T01:20:13.205Z,5.34
2023-02-23T01:22:50.532Z,5.44
2023-02-23T01:25:24.589Z,5.31
2023-02-23T01:27:58.022Z,5.31
2023-02-23T01:30:31.785Z,5.40
2023-02-23T01:33:05.330Z,5.33
2023-02-23T01:35:38.500Z,5.47
2023-02-23T01:38:13.880Z,5.49
2023-02-23T01:40:47.388Z,5.46
2023-02-23T01:43:26.194Z,5.44
2023-02-23T01:45:59.948Z,5.49
2023-02-23T01:48:37.231Z,5.29
2023-02-23T01:51:14.074Z,5.50
2023-02-23T01:53:53.722Z,5.56
2023-02-23T01:56:31.606Z,5.49
2023-02-23T01:59:07.645Z,5.55
2023-02-23T02:01:42.149Z,5.49
2023-02-23T02:04:16.854Z,5.58
2023-02-23T02:06:53.713Z,5.65
2023-02-23T02:09:28.992Z,5.64
2023-02-23T02:12:02.751Z,5.70
2023-02-23T02:14:37.301Z,5.55
2023-02-23T02:17:25.611Z,5.64
2023-02-23T02:20:38.548Z,5.57
2023-02-23T02:23:41.941Z,5.66
2023-02-23T02:26:25.775Z,5.52
2023-02-23T02:29:31.990Z,5.47
2023-02-23T02:32:30.638Z,5.46
2023-02-23T02:35:34.215Z,5.38
2023-02-23T02:38:28.405Z,5.23
2023-02-23T02:41:07.644Z,5.29
2023-02-23T02:43:47.924Z,5.12
2023-02-23T02:46:27.699Z,5.22
2023-02-23T02:49:08.835Z,5.14
2023-02-23T02:51:48.942Z,4.90
2023-02-23T02:54:29.126Z,5.00
2023-02-23T02:57:04.776Z,4.86
2023-02-23T03:00:02.589Z,4.78
2023-02-23T03:02:55.956Z,4.70
2023-02-23T03:05:56.696Z,4.82
2023-02-23T03:08:55.791Z,4.79
2023-02-23T03:11:56.415Z,4.64
2023-02-23T03:14:57.354Z,4.90
2023-02-23T03:17:55.902Z,4.75
2023-02-23T03:20:59.860Z,4.50
2023-02-23T03:24:02.780Z,4.94
2023-02-23T03:26:59.841Z,4.86
2023-02-23T03:29:55.684Z,4.84
2023-02-23T03:32:52.318Z,4.75
2023-02-23T03:35:49.777Z,4.95
2023-02-23T03:38:46.807Z,4.79
2023-02-23T03:41:41.200Z,4.88
2023-02-23T03:44:35.712Z,4.98
2023-02-23T03:47:30.737Z,4.97
2023-02-23T03:50:25.721Z,5.06
2023-02-23T03:53:19.322Z,5.04
2023-02-23T03:56:13.499Z,5.01
2023-02-23T03:59:09.358Z,4.91
2023-02-23T04:02:01.721Z,5.06
2023-02-23T04:04:53.544Z,4.92
2023-02-23T04:07:45.003Z,4.99
2023-02-23T04:10:35.941Z,4.86
2023-02-23T04:13:16.664Z,5.04
2023-02-23T04:15:52.812Z,4.85
2023-02-23T04:18:31.040Z,5.01
2023-02-23T04:21:05.265Z,5.01
2023-02-23T04:23:40.811Z,4.97
2023-02-23T04:26:14.336Z,4.92
2023-02-23T04:28:47.742Z,4.75
2023-02-23T04:31:25.023Z,4.85
2023-02-23T04:34:00.402Z,4.83
2023-02-23T04:36:33.684Z,4.72
2023-02-23T04:39:06.933Z,4.77
2023-02-23T04:41:40.193Z,4.79
2023-02-23T04:44:13.337Z,4.88
2023-02-23T04:46:46.872Z,4.88
2023-02-23T04:49:21.731Z,4.70
2023-02-23T04:51:55.354Z,4.73
2023-02-23T04:54:28.803Z,4.66
2023-02-23T04:57:02.147Z,4.36
2023-02-23T04:59:35.721Z,4.63
2023-02-23T05:02:09.489Z,4.59
2023-02-23T05:04:44.712Z,4.79
2023-02-23T05:07:18.984Z,4.91
2023-02-23T05:09:51.992Z,5.09
2023-02-23T05:12:28.209Z,5.01
2023-02-23T05:15:02.037Z,4.66
2023-02-23T05:17:41.233Z,4.65
2023-02-23T05:20:16.602Z,4.59
2023-02-23T05:22:49.810Z,4.66
2023-02-23T05:25:23.900Z,4.61
2023-02-23T05:27:57.217Z,4.76
2023-02-23T05:30:30.678Z,4.85
2023-02-23T05:33:04.330Z,4.98
2023-02-23T05:35:42.172Z,4.84
2023-02-23T05:38:15.607Z,4.71
2023-02-23T05:40:49.427Z,4.73
2023-02-23T05:43:22.592Z,4.91
2023-02-23T05:45:55.804Z,4.81
2023-02-23T05:48:29.505Z,4.90
2023-02-23T05:51:05.453Z,4.90
2023-02-23T05:53:39.759Z,4.77
2023-02-23T05:56:18.259Z,4.64
2023-02-23T05:58:52.971Z,4.76
2023-02-23T06:01:28.231Z,5.06
2023-02-23T06:04:03.109Z,5.21
2023-02-23T06:06:38.877Z,4.88
2023-02-23T06:09:12.196Z,4.84
2023-02-23T06:11:45.795Z,5.02
2023-02-23T06:14:19.293Z,4.99
2023-02-23T06:16:52.724Z,5.05
2023-02-23T06:19:26.530Z,4.88
2023-02-23T06:22:01.661Z,4.33
2023-02-23T06:24:35.521Z,4.82
2023-02-23T06:27:09.061Z,4.83
2023-02-23T06:29:42.694Z,4.82
2023-02-23T06:32:16.289Z,4.86
2023-02-23T06:34:49.999Z,4.77
2023-02-23T06:37:25.203Z,4.74
2023-02-23T06:39:58.795Z,4.83
2023-02-23T06:42:32.214Z,5.03
2023-02-23T06:45:06.608Z,5.01
2023-02-23T06:47:40.116Z,5.00
2023-02-23T06:50:15.062Z,5.18
2023-02-23T06:52:49.911Z,5.10
2023-02-23T06:55:23.281Z,5.14
2023-02-23T06:57:56.520Z,5.13
2023-02-23T07:00:30.568Z,5.13
2023-02-23T07:03:04.035Z,5.25
2023-02-23T07:05:37.787Z,5.16
2023-02-23T07:08:12.616Z,5.22
2023-02-23T07:10:47.187Z,5.24
2023-02-23T07:13:22.089Z,5.29
2023-02-23T07:15:58.733Z,5.14
2023-02-23T07:18:32.372Z,5.29
2023-02-23T07:21:06.000Z,5.31
2023-02-23T07:23:40.659Z,5.44
2023-02-23T07:26:15.893Z,5.41
2023-02-23T07:28:49.234Z,5.39
2023-02-23T07:31:22.836Z,5.55
2023-02-23T07:33:56.566Z,5.60
2023-02-23T07:36:30.373Z,5.85
2023-02-23T07:39:05.564Z,5.90
2023-02-23T07:41:38.954Z,6.03
2023-02-23T07:44:12.268Z,6.05
2023-02-23T07:46:46.517Z,6.10
2023-02-23T07:49:20.176Z,6.07
2023-02-23T07:51:54.044Z,6.30
2023-02-23T07:54:29.011Z,6.22
2023-02-23T07:57:02.319Z,6.08
2023-02-23T07:59:35.621Z,5.88
2023-02-23T08:02:09.049Z,6.00
2023-02-23T08:04:43.205Z,5.84
2023-02-23T08:07:16.932Z,5.82
2023-02-23T08:09:51.863Z,5.91
2023-02-23T08:12:25.645Z,5.98
2023-02-23T08:14:59.501Z,5.80
2023-02-23T08:17:32.716Z,5.77
2023-02-23T08:20:07.500Z,6.09
2023-02-23T08:22:49.479Z,6.04
2023-02-23T08:25:24.495Z,5.98
2023-02-23T08:27:59.661Z,5.84
2023-02-23T08:30:33.603Z,6.04
2023-02-23T08:33:07.367Z,5.92
2023-02-23T08:35:40.953Z,5.84
2023-02-23T08:38:16.599Z,5.89
2023-02-23T08:40:51.519Z,5.58
2023-02-23T08:43:24.852Z,5.96
2023-02-23T08:45:58.073Z,5.98
2023-02-23T08:48:31.600Z,5.81
2023-02-23T08:51:05.483Z,5.58
2023-02-23T08:53:38.913Z,5.78
2023-02-23T08:56:15.404Z,5.67
2023-02-23T08:58:48.661Z,5.78
2023-02-23T09:01:23.127Z,5.94
2023-02-23T09:03:56.736Z,5.96
2023-02-23T09:06:31.040Z,5.88
2023-02-23T09:09:04.724Z,5.81
2023-02-23T09:11:39.509Z,6.07
2023-02-23T09:14:13.373Z,6.20
2023-02-23T09:16:47.232Z,6.28
2023-02-23T09:19:20.765Z,6.07
2023-02-23T09:21:54.789Z,6.36
2023-02-23T09:24:28.132Z,6.40
2023-02-23T09:27:02.878Z,6.36
2023-02-23T09:29:38.080Z,6.41
2023-02-23T09:32:12.429Z,6.27
2023-02-23T09:34:48.726Z,6.37
2023-02-23T09:37:22.207Z,6.43
2023-02-23T09:39:57.900Z,6.37
2023-02-23T09:42:40.083Z,6.41
2023-02-23T09:45:30.564Z,6.36
2023-02-23T09:48:13.328Z,6.56
2023-02-23T09:50:50.257Z,6.38
2023-02-23T09:53:36.932Z,6.53
2023-02-23T09:56:15.755Z,6.55
2023-02-23T09:58:51.246Z,6.66
2023-02-23T10:01:46.321Z,6.71
2023-02-23T10:04:24.273Z,6.67
2023-02-23T10:07:08.290Z,6.89
2023-02-23T10:09:55.377Z,7.03
2023-02-23T10:12:36.498Z,7.03
2023-02-23T10:15:33.660Z,7.18
2023-02-23T10:18:20.615Z,7.42
2023-02-23T10:21:04.280Z,7.53
2023-02-23T10:23:43.423Z,7.41
2023-02-23T10:26:19.706Z,7.42
2023-02-23T10:28:55.291Z,7.44
2023-02-23T10:31:35.585Z,7.47
2023-02-23T10:34:15.465Z,7.38
2023-02-23T10:36:54.720Z,7.72
2023-02-23T10:39:28.987Z,7.88
2023-02-23T10:42:06.464Z,7.56
2023-02-23T10:44:39.972Z,7.74
2023-02-23T10:47:18.864Z,7.72
2023-02-23T10:49:54.095Z,7.69
2023-02-23T10:52:34.489Z,7.82
2023-02-23T10:55:09.679Z,7.85
2023-02-23T10:57:43.374Z,8.03
2023-02-23T11:00:30.774Z,8.08
2023-02-23T11:03:19.914Z,8.25
2023-02-23T11:05:53.876Z,8.34
2023-02-23T11:08:32.104Z,8.21
2023-02-23T11:11:26.337Z,8.19
2023-02-23T11:14:09.992Z,8.02
2023-02-23T11:16:43.841Z,8.40
2023-02-23T11:19:25.442Z,8.57
2023-02-23T11:21:59.014Z,8.45
2023-02-23T11:24:37.652Z,8.41
2023-02-23T11:27:23.165Z,8.67
2023-02-23T11:30:00.301Z,8.61
2023-02-23T11:32:42.596Z,8.61
2023-02-23T11:35:30.531Z,8.89
2023-02-23T11:38:17.141Z,8.83
2023-02-23T11:41:01.130Z,8.82
2023-02-23T11:43:36.177Z,8.74
2023-02-23T11:46:10.377Z,8.89
2023-02-23T11:48:49.504Z,8.89
2023-02-23T11:51:28.695Z,8.89
2023-02-23T11:54:05.488Z,8.89
2023-02-23T11:56:39.432Z,8.91
2023-02-23T11:59:20.530Z,8.97
2023-02-23T12:01:57.666Z,8.86
2023-02-23T12:04:37.122Z,8.92
2023-02-23T12:07:38.951Z,8.98
2023-02-23T12:10:20.580Z,8.98
2023-02-23T12:13:04.588Z,9.00
2023-02-23T12:15:45.091Z,8.88
2023-02-23T12:18:34.271Z,9.06
2023-02-23T12:21:19.228Z,8.97
2023-02-23T12:24:05.496Z,9.09
2023-02-23T12:26:46.038Z,9.17
2023-02-23T12:29:30.487Z,9.17
2023-02-23T12:32:10.268Z,9.19
2023-02-23T12:34:49.264Z,9.12
2023-02-23T12:37:37.066Z,9.19
2023-02-23T12:40:20.391Z,9.26
2023-02-23T12:43:01.485Z,9.28
2023-02-23T12:45:39.595Z,9.34
2023-02-23T12:48:28.700Z,9.38
2023-02-23T12:51:06.580Z,9.33
2023-02-23T12:53:43.214Z,9.46
2023-02-23T12:56:34.113Z,9.39
2023-02-23T12:59:22.012Z,9.52
2023-02-23T13:01:59.502Z,9.53
2023-02-23T13:04:51.290Z,9.54
2023-02-23T13:07:38.193Z,9.53
2023-02-23T13:10:23.645Z,9.30
2023-02-23T13:13:16.346Z,9.68
2023-02-23T13:15:58.964Z,9.66
2023-02-23T13:18:38.886Z,9.66
2023-02-23T13:21:21.504Z,9.63
2023-02-23T13:24:04.583Z,9.69
2023-02-23T13:26:47.535Z,9.79
2023-02-23T13:29:34.569Z,9.82
2023-02-23T13:32:13.808Z,9.86
2023-02-23T13:34:53.460Z,9.83
2023-02-23T13:37:32.264Z,9.82
2023-02-23T13:40:22.200Z,9.83
2023-02-23T13:43:07.758Z,9.93
2023-02-23T13:45:59.798Z,9.94
2023-02-23T13:48:56.239Z,9.93
2023-02-23T13:51:37.606Z,9.93
2023-02-23T13:54:25.688Z,9.89
2023-02-23T13:57:01.719Z,9.87
2023-02-23T13:59:43.156Z,9.83
2023-02-23T14:02:37.737Z,9.89
2023-02-23T14:05:20.215Z,9.86
2023-02-23T14:07:56.184Z,9.85
2023-02-23T14:10:36.894Z,9.88
2023-02-23T14:13:28.122Z,9.88
2023-02-23T14:16:18.972Z,9.87
2023-02-23T14:19:07.668Z,9.82
2023-02-23T14:21:52.409Z,9.83
2023-02-23T14:24:27.491Z,9.82
2023-02-23T14:27:39.888Z,9.70
2023-02-23T14:30:22.779Z,9.81
2023-02-23T14:32:56.614Z,9.84
2023-02-23T14:35:45.082Z,9.81
2023-02-23T14:38:45.697Z,9.70
2023-02-23T14:41:23.855Z,9.74
2023-02-23T14:44:03.993Z,9.79
2023-02-23T14:46:38.503Z,9.77
2023-02-23T14:49:20.503Z,9.81
2023-02-23T14:51:56.565Z,9.72
2023-02-23T14:54:33.995Z,9.78
2023-02-23T14:57:18.731Z,9.71
2023-02-23T14:59:57.369Z,9.76
2023-02-23T15:02:31.666Z,9.75
2023-02-23T15:05:16.064Z,9.76
2023-02-23T15:07:52.053Z,9.70
2023-02-23T15:10:29.632Z,9.67
2023-02-23T15:13:11.203Z,9.67
2023-02-23T15:15:47.466Z,9.58
2023-02-23T15:18:25.561Z,9.66
2023-02-23T15:20:59.252Z,9.67
2023-02-23T15:23:38.756Z,9.64
2023-02-23T15:26:24.416Z,9.66
2023-02-23T15:29:04.695Z,9.60
2023-02-23T15:31:40.849Z,9.61
2023-02-23T15:34:14.648Z,9.62
2023-02-23T15:36:55.681Z,9.59
2023-02-23T15:39:38.701Z,9.59
2023-02-23T15:42:16.468Z,9.58
2023-02-23T15:44:56.815Z,9.58
2023-02-23T15:47:34.942Z,9.56
2023-02-23T15:50:20.132Z,9.55
2023-02-23T15:53:03.430Z,9.53
2023-02-23T15:55:39.236Z,9.36
2023-02-23T15:58:19.707Z,9.56
2023-02-23T16:00:58.268Z,9.54
2023-02-23T16:03:34.632Z,9.53
2023-02-23T16:06:22.873Z,9.51
2023-02-23T16:09:02.407Z,9.50
2023-02-23T16:11:38.177Z,9.48
2023-02-23T16:14:17.359Z,9.50
2023-02-23T16:17:09.883Z,9.49
2023-02-23T16:19:45.529Z,9.48
2023-02-23T16:22:24.786Z,9.44
2023-02-23T16:25:02.169Z,9.46
2023-02-23T16:27:39.165Z,9.39
2023-02-23T16:30:23.465Z,9.34
2023-02-23T16:33:07.276Z,9.32
2023-02-23T16:35:46.710Z,9.34
2023-02-23T16:38:26.584Z,9.32
2023-02-23T16:41:00.048Z,9.26
2023-02-23T16:43:36.121Z,9.15
2023-02-23T16:46:09.814Z,9.19
2023-02-23T16:48:43.716Z,9.19
2023-02-23T16:51:19.774Z,9.15
2023-02-23T16:53:53.654Z,9.12
2023-02-23T16:56:28.573Z,9.14
2023-02-23T16:59:05.271Z,8.96
2023-02-23T17:01:38.649Z,9.04
2023-02-23T17:04:15.512Z,9.05
2023-02-23T17:06:57.814Z,9.01
2023-02-23T17:09:31.405Z,8.99
2023-02-23T17:12:06.146Z,8.88
2023-02-23T17:14:41.280Z,8.99
2023-02-23T17:17:16.323Z,8.96
2023-02-23T17:19:49.664Z,8.89
2023-02-23T17:22:22.845Z,8.91
2023-02-23T17:24:56.288Z,8.79
2023-02-23T17:27:29.868Z,8.85
2023-02-23T17:30:05.316Z,8.82
2023-02-23T17:32:38.856Z,8.81
2023-02-23T17:35:12.549Z,8.80
2023-02-23T17:37:46.057Z,8.85
2023-02-23T17:40:26.414Z,8.68
2023-02-23T17:43:01.068Z,8.81
2023-02-23T17:45:37.203Z,8.40
2023-02-23T17:48:10.763Z,8.70
2023-02-23T17:50:44.088Z,8.59
2023-02-23T17:53:17.417Z,8.65
2023-02-23T17:55:51.247Z,8.52
2023-02-23T17:58:24.815Z,8.49
2023-02-23T18:01:01.291Z,8.44
2023-02-23T18:03:36.965Z,8.34
2023-02-23T18:06:12.543Z,8.29
2023-02-23T18:08:46.036Z,8.36
2023-02-23T18:11:19.944Z,8.32
2023-02-23T18:13:53.232Z,7.91
2023-02-23T18:16:27.836Z,8.31
2023-02-23T18:19:01.295Z,8.24
2023-02-23T18:21:39.201Z,8.26
2023-02-23T18:24:13.691Z,8.25
2023-02-23T18:26:47.203Z,8.19
2023-02-23T18:29:20.412Z,8.18
2023-02-23T18:31:56.171Z,8.14
2023-02-23T18:34:31.058Z,8.16
2023-02-23T18:37:05.719Z,8.09
2023-02-23T18:39:39.261Z,8.17
2023-02-23T18:42:12.901Z,8.15
2023-02-23T18:44:46.197Z,8.04
2023-02-23T18:47:21.175Z,8.12
2023-02-23T18:49:54.835Z,8.08
2023-02-23T18:52:28.264Z,8.13
2023-02-23T18:55:01.628Z,7.78
2023-02-23T18:57:35.244Z,8.01
2023-02-23T19:00:13.291Z,7.79
2023-02-23T19:02:48.836Z,7.97
2023-02-23T19:05:22.819Z,8.04
2023-02-23T19:07:56.458Z,7.97
2023-02-23T19:10:30.392Z,7.95
2023-02-23T19:13:08.809Z,7.88
2023-02-23T19:15:42.799Z,7.79
2023-02-23T19:18:18.378Z,7.80
2023-02-23T19:20:55.521Z,7.77
2023-02-23T19:23:29.685Z,7.73
2023-02-23T19:26:03.404Z,7.76
2023-02-23T19:28:36.970Z,7.74
2023-02-23T19:31:17.123Z,7.72
2023-02-23T19:33:52.033Z,7.70
2023-02-23T19:36:29.872Z,7.71
2023-02-23T19:39:15.626Z,7.72
2023-02-23T19:41:48.890Z,7.70
2023-02-23T19:44:22.331Z,7.58
2023-02-23T19:46:55.614Z,7.47
2023-02-23T19:49:30.857Z,7.55
2023-02-23T19:52:04.428Z,7.52
2023-02-23T19:54:38.734Z,7.53
2023-02-23T19:57:11.961Z,7.60
2023-02-23T19:59:45.728Z,7.57
2023-02-23T20:02:19.428Z,7.59
2023-02-23T20:04:54.478Z,7.66
2023-02-23T20:07:28.048Z,7.64
2023-02-23T20:10:05.520Z,7.68
2023-02-23T20:12:39.848Z,7.70
2023-02-23T20:15:14.889Z,7.57
2023-02-23T20:17:51.220Z,7.60
2023-02-23T20:20:28.762Z,7.50
2023-02-23T20:23:01.933Z,7.43
2023-02-23T20:25:35.755Z,7.48
2023-02-23T20:28:09.326Z,7.49
2023-02-23T20:30:47.225Z,7.36
2023-02-23T20:33:20.953Z,7.48
2023-02-23T20:35:56.017Z,7.54
2023-02-23T20:38:29.431Z,7.55
2023-02-23T20:41:03.683Z,7.53
2023-02-23T20:43:38.017Z,7.61
2023-02-23T20:46:11.697Z,7.48
2023-02-23T20:48:46.117Z,7.52
2023-02-23T20:51:21.460Z,7.62
2023-02-23T20:53:55.102Z,7.61
2023-02-23T20:56:32.849Z,7.63
2023-02-23T20:59:11.030Z,7.58
2023-02-23T21:01:45.334Z,7.65
2023-02-23T21:04:18.647Z,7.61
2023-02-23T21:06:53.304Z,7.50
2023-02-23T21:09:26.785Z,7.54
2023-02-23T21:12:06.039Z,7.57
2023-02-23T21:14:39.919Z,7.61
2023-02-23T21:17:13.430Z,7.51
2023-02-23T21:19:47.114Z,7.57
2023-02-23T21:22:21.726Z,7.66
2023-02-23T21:24:54.994Z,7.65
2023-02-23T21:27:28.411Z,7.67
2023-02-23T21:30:01.913Z,7.59
2023-02-23T21:32:41.283Z,7.53
2023-02-23T21:35:15.388Z,7.58
2023-02-23T21:37:51.915Z,7.37
2023-02-23T21:40:25.324Z,7.59
2023-02-23T21:43:01.150Z,7.62
2023-02-23T21:45:34.668Z,7.24
2023-02-23T21:48:08.075Z,7.63
2023-02-23T21:50:41.549Z,7.65
2023-02-23T21:53:16.258Z,7.67
2023-02-23T21:55:49.538Z,7.55
2023-02-23T21:58:24.022Z,7.56
2023-02-23T22:00:57.367Z,7.62
2023-02-23T22:03:31.368Z,7.61
2023-02-23T22:06:04.826Z,7.59
2023-02-23T22:08:39.799Z,7.54
2023-02-23T22:11:17.545Z,7.53
2023-02-23T22:13:59.404Z,7.60
2023-02-23T22:16:36.630Z,7.41
2023-02-23T22:19:10.006Z,7.54
2023-02-23T22:21:44.507Z,7.47
2023-02-23T22:24:19.693Z,7.19
2023-02-23T22:26:55.123Z,7.43
2023-02-23T22:29:28.743Z,7.25
2023-02-23T22:32:02.487Z,7.41
2023-02-23T22:34:35.680Z,7.44
2023-02-23T22:37:09.013Z,7.27
2023-02-23T22:39:44.164Z,7.28
2023-02-23T22:42:17.692Z,7.35
2023-02-23T22:44:50.792Z,7.30
2023-02-23T22:47:24.267Z,7.35
2023-02-23T22:49:57.554Z,7.40
2023-02-23T22:52:32.421Z,7.46
2023-02-23T22:55:08.273Z,7.35
2023-02-23T22:57:41.836Z,7.32
2023-02-23T23:00:19.506Z,7.41
2023-02-23T23:02:52.754Z,7.41
2023-02-23T23:05:25.908Z,7.34
2023-02-23T23:07:59.247Z,7.39
2023-02-23T23:10:34.458Z,7.36
2023-02-23T23:13:08.649Z,7.46
2023-02-23T23:15:43.112Z,7.49
2023-02-23T23:18:20.794Z,7.38
2023-02-23T23:20:55.452Z,7.21
2023-02-23T23:23:28.984Z,7.44
2023-02-23T23:26:03.877Z,7.34
2023-02-23T23:28:40.233Z,7.24
2023-02-23T23:31:13.566Z,7.41
2023-02-23T23:33:48.761Z,7.42
2023-02-23T23:36:23.670Z,7.39
2023-02-23T23:38:57.953Z,7.46
2023-02-23T23:41:35.462Z,7.25
2023-02-23T23:44:10.733Z,7.32
2023-02-23T23:46:45.640Z,7.28
2023-02-23T23:49:21.571Z,7.23
2023-02-23T23:51:57.199Z,7.28
2023-02-23T23:54:32.425Z,7.30
2023-02-23T23:57:08.292Z,7.22
2023-02-23T23:59:46.110Z,7.26
